METAR Formatted Surface Weather Observation
Issued by NWS

Home | Current Version | Previous Version | Text Only | Print | Product List | Glossary On
Versions: 1 2 3 4 5 6 7 8 9 10 11 12
901
SAUS41 KCAR 201700 COR
MTRGNR
METAR KGNR 201656Z AUTO 28008G21KT 240V320 M07/M13 A2961 RMK AO1
SLP050 T10671133



USA.gov is the U.S. government's official web portal to all federal, state and local government web resources and services.